sensor_id;sensor_type;location;lat;lon;timestamp;pressure;altitude;pressure_sealevel;temperature;humidity
38253;BME280;24785;52.372;20.672;2023-08-17T00:06:18;101015.63;;;20.88;100.00
38253;BME280;24785;52.372;20.672;2023-08-17T00:16:18;101016.28;;;20.85;100.00
38253;BME280;24785;52.372;20.672;2023-08-17T00:26:19;101025.19;;;20.94;100.00
38253;BME280;24785;52.372;20.672;2023-08-17T00:36:20;101065.88;;;20.99;100.00
38253;BME280;24785;52.372;20.672;2023-08-17T00:46:21;101046.53;;;20.92;100.00
38253;BME280;24785;52.372;20.672;2023-08-17T00:56:23;101051.38;;;20.78;100.00
38253;BME280;24785;52.372;20.672;2023-08-17T01:06:24;101043.19;;;20.87;100.00
38253;BME280;24785;52.372;20.672;2023-08-17T01:16:33;101048.31;;;20.88;100.00
38253;BME280;24785;52.372;20.672;2023-08-17T01:26:35;101050.94;;;21.05;100.00
38253;BME280;24785;52.372;20.672;2023-08-17T01:36:39;101039.34;;;20.88;100.00
38253;BME280;24785;52.372;20.672;2023-08-17T01:46:42;101038.59;;;20.70;100.00
38253;BME280;24785;52.372;20.672;2023-08-17T01:56:43;101026.69;;;20.36;100.00
38253;BME280;24785;52.372;20.672;2023-08-17T02:06:44;101014.50;;;20.25;100.00
38253;BME280;24785;52.372;20.672;2023-08-17T02:16:45;101021.84;;;20.33;100.00
38253;BME280;24785;52.372;20.672;2023-08-17T02:26:45;101005.72;;;20.75;100.00
38253;BME280;24785;52.372;20.672;2023-08-17T02:36:46;101022.66;;;20.89;100.00
38253;BME280;24785;52.372;20.672;2023-08-17T02:46:47;101036.06;;;21.03;100.00
38253;BME280;24785;52.372;20.672;2023-08-17T02:56:48;101008.75;;;21.12;100.00
38253;BME280;24785;52.372;20.672;2023-08-17T03:06:49;101015.44;;;21.23;100.00
38253;BME280;24785;52.372;20.672;2023-08-17T03:16:50;101019.44;;;21.25;100.00
38253;BME280;24785;52.372;20.672;2023-08-17T03:26:50;101026.50;;;21.18;100.00
38253;BME280;24785;52.372;20.672;2023-08-17T03:36:51;101048.31;;;21.18;100.00
38253;BME280;24785;52.372;20.672;2023-08-17T03:46:52;101058.25;;;21.14;100.00
38253;BME280;24785;52.372;20.672;2023-08-17T03:56:53;101052.25;;;20.99;100.00
38253;BME280;24785;52.372;20.672;2023-08-17T04:06:54;101061.38;;;21.03;100.00
38253;BME280;24785;52.372;20.672;2023-08-17T04:16:54;101061.66;;;21.11;100.00
38253;BME280;24785;52.372;20.672;2023-08-17T04:26:57;101077.16;;;21.19;100.00
38253;BME280;24785;52.372;20.672;2023-08-17T04:36:58;101088.06;;;21.19;100.00
38253;BME280;24785;52.372;20.672;2023-08-17T04:46:58;101090.59;;;21.32;100.00
38253;BME280;24785;52.372;20.672;2023-08-17T04:56:59;101091.41;;;21.33;100.00
38253;BME280;24785;52.372;20.672;2023-08-17T05:07:00;101089.13;;;21.85;100.00
38253;BME280;24785;52.372;20.672;2023-08-17T05:17:01;101089.31;;;22.67;100.00
38253;BME280;24785;52.372;20.672;2023-08-17T05:27:02;101082.00;;;23.65;99.56
38253;BME280;24785;52.372;20.672;2023-08-17T05:37:03;101073.41;;;24.07;92.94
38253;BME280;24785;52.372;20.672;2023-08-17T05:47:04;101081.66;;;24.51;90.71
38253;BME280;24785;52.372;20.672;2023-08-17T05:57:04;101071.63;;;24.70;88.50
38253;BME280;24785;52.372;20.672;2023-08-17T06:07:06;101062.69;;;25.05;86.12
38253;BME280;24785;52.372;20.672;2023-08-17T06:17:07;101067.84;;;25.41;83.54
38253;BME280;24785;52.372;20.672;2023-08-17T06:27:07;101069.66;;;25.88;80.59
38253;BME280;24785;52.372;20.672;2023-08-17T06:37:08;101068.47;;;26.28;77.24
38253;BME280;24785;52.372;20.672;2023-08-17T06:47:09;101073.84;;;27.09;69.36
38253;BME280;24785;52.372;20.672;2023-08-17T06:57:10;101070.31;;;27.08;67.43
38253;BME280;24785;52.372;20.672;2023-08-17T07:07:10;101085.69;;;26.90;67.53
38253;BME280;24785;52.372;20.672;2023-08-17T07:17:11;101079.97;;;27.25;66.87
38253;BME280;24785;52.372;20.672;2023-08-17T07:27:12;101077.25;;;27.81;63.92
38253;BME280;24785;52.372;20.672;2023-08-17T07:37:13;101076.09;;;28.53;61.57
38253;BME280;24785;52.372;20.672;2023-08-17T07:47:14;101072.63;;;29.07;59.15
38253;BME280;24785;52.372;20.672;2023-08-17T07:57:15;101077.56;;;28.84;59.33
38253;BME280;24785;52.372;20.672;2023-08-17T08:07:16;101080.50;;;29.05;59.32
38253;BME280;24785;52.372;20.672;2023-08-17T08:17:17;101077.47;;;28.77;58.79
38253;BME280;24785;52.372;20.672;2023-08-17T08:27:17;101073.97;;;28.80;59.15
38253;BME280;24785;52.372;20.672;2023-08-17T08:37:18;101062.66;;;29.47;56.59
38253;BME280;24785;52.372;20.672;2023-08-17T08:47:20;101073.09;;;29.86;54.42
38253;BME280;24785;52.372;20.672;2023-08-17T08:57:22;101083.94;;;30.37;55.43
38253;BME280;24785;52.372;20.672;2023-08-17T09:07:23;101075.66;;;30.55;54.33
38253;BME280;24785;52.372;20.672;2023-08-17T09:17:25;101070.53;;;31.17;51.46
38253;BME280;24785;52.372;20.672;2023-08-17T09:27:26;101062.09;;;31.67;50.54
38253;BME280;24785;52.372;20.672;2023-08-17T09:37:27;101067.38;;;31.33;49.67
38253;BME280;24785;52.372;20.672;2023-08-17T09:47:29;101061.06;;;30.90;53.01
38253;BME280;24785;52.372;20.672;2023-08-17T09:57:30;101059.09;;;30.97;52.13
38253;BME280;24785;52.372;20.672;2023-08-17T10:07:31;101058.28;;;31.18;50.49
38253;BME280;24785;52.372;20.672;2023-08-17T10:17:44;101049.13;;;31.46;49.27
38253;BME280;24785;52.372;20.672;2023-08-17T10:27:49;101029.16;;;31.94;46.97
38253;BME280;24785;52.372;20.672;2023-08-17T10:37:52;101023.50;;;32.08;45.07
38253;BME280;24785;52.372;20.672;2023-08-17T10:58:09;100998.25;;;32.51;40.90
38253;BME280;24785;52.372;20.672;2023-08-17T11:18:34;100989.38;;;33.11;39.17
38253;BME280;24785;52.372;20.672;2023-08-17T11:28:35;100983.47;;;33.06;38.79
38253;BME280;24785;52.372;20.672;2023-08-17T11:38:42;100978.28;;;33.11;36.44
38253;BME280;24785;52.372;20.672;2023-08-17T11:48:43;100977.69;;;33.27;37.84
38253;BME280;24785;52.372;20.672;2023-08-17T11:58:46;100968.63;;;33.54;35.89
38253;BME280;24785;52.372;20.672;2023-08-17T12:08:47;100969.09;;;33.79;35.79
38253;BME280;24785;52.372;20.672;2023-08-17T12:18:49;100960.59;;;34.17;33.39
38253;BME280;24785;52.372;20.672;2023-08-17T12:28:50;100949.81;;;34.46;32.68
38253;BME280;24785;52.372;20.672;2023-08-17T12:38:51;100943.88;;;34.44;31.69
38253;BME280;24785;52.372;20.672;2023-08-17T12:48:52;100950.41;;;34.10;33.67
38253;BME280;24785;52.372;20.672;2023-08-17T12:58:53;100939.50;;;35.09;30.25
38253;BME280;24785;52.372;20.672;2023-08-17T13:08:54;100930.75;;;34.67;31.55
38253;BME280;24785;52.372;20.672;2023-08-17T13:18:55;100939.88;;;34.21;33.91
38253;BME280;24785;52.372;20.672;2023-08-17T13:28:56;100928.50;;;34.12;33.37
38253;BME280;24785;52.372;20.672;2023-08-17T13:38:57;100915.09;;;34.73;32.82
38253;BME280;24785;52.372;20.672;2023-08-17T13:48:58;100923.81;;;33.82;34.00
38253;BME280;24785;52.372;20.672;2023-08-17T13:58:59;100910.97;;;33.00;33.51
38253;BME280;24785;52.372;20.672;2023-08-17T14:09:02;100919.53;;;32.38;35.01
38253;BME280;24785;52.372;20.672;2023-08-17T14:19:03;100912.25;;;32.06;37.01
38253;BME280;24785;52.372;20.672;2023-08-17T14:29:04;100921.28;;;31.51;38.29
38253;BME280;24785;52.372;20.672;2023-08-17T14:39:05;100921.03;;;31.24;40.76
38253;BME280;24785;52.372;20.672;2023-08-17T14:49:06;100936.09;;;31.06;40.38
38253;BME280;24785;52.372;20.672;2023-08-17T14:59:07;100936.59;;;30.26;43.25
38253;BME280;24785;52.372;20.672;2023-08-17T15:09:08;100953.78;;;29.44;42.40
38253;BME280;24785;52.372;20.672;2023-08-17T15:19:09;100933.69;;;28.78;42.22
38253;BME280;24785;52.372;20.672;2023-08-17T15:29:10;100932.53;;;28.28;45.06
38253;BME280;24785;52.372;20.672;2023-08-17T15:39:11;100944.31;;;28.25;44.96
38253;BME280;24785;52.372;20.672;2023-08-17T15:49:12;100950.03;;;27.69;47.32
38253;BME280;24785;52.372;20.672;2023-08-17T15:59:13;100988.13;;;27.63;48.90
38253;BME280;24785;52.372;20.672;2023-08-17T16:09:14;100995.25;;;27.38;51.81
38253;BME280;24785;52.372;20.672;2023-08-17T16:19:15;100998.94;;;26.96;53.15
38253;BME280;24785;52.372;20.672;2023-08-17T16:29:16;101001.50;;;26.82;52.84
38253;BME280;24785;52.372;20.672;2023-08-17T16:39:17;100999.94;;;26.35;55.21
38253;BME280;24785;52.372;20.672;2023-08-17T16:49:18;101011.38;;;26.18;57.02
38253;BME280;24785;52.372;20.672;2023-08-17T16:59:19;101009.38;;;25.95;58.97
38253;BME280;24785;52.372;20.672;2023-08-17T17:09:20;101024.09;;;25.49;61.31
38253;BME280;24785;52.372;20.672;2023-08-17T17:19:21;101019.03;;;25.51;58.70
38253;BME280;24785;52.372;20.672;2023-08-17T17:29:21;101019.81;;;25.67;58.50
38253;BME280;24785;52.372;20.672;2023-08-17T17:39:22;101026.13;;;25.52;61.31
38253;BME280;24785;52.372;20.672;2023-08-17T17:49:23;101021.47;;;25.01;63.56
38253;BME280;24785;52.372;20.672;2023-08-17T17:59:24;101020.16;;;24.48;65.41
38253;BME280;24785;52.372;20.672;2023-08-17T18:09:25;101004.94;;;23.91;68.48
38253;BME280;24785;52.372;20.672;2023-08-17T18:19:27;101007.91;;;23.46;72.24
38253;BME280;24785;52.372;20.672;2023-08-17T18:29:27;101011.84;;;22.96;76.23
38253;BME280;24785;52.372;20.672;2023-08-17T18:39:28;101020.44;;;22.49;79.38
38253;BME280;24785;52.372;20.672;2023-08-17T18:49:29;101026.84;;;21.87;84.96
38253;BME280;24785;52.372;20.672;2023-08-17T18:59:30;101025.84;;;21.71;87.37
38253;BME280;24785;52.372;20.672;2023-08-17T19:09:31;101022.59;;;21.36;90.55
38253;BME280;24785;52.372;20.672;2023-08-17T19:19:32;101026.09;;;21.07;95.05
38253;BME280;24785;52.372;20.672;2023-08-17T19:29:33;101027.22;;;20.68;100.00
38253;BME280;24785;52.372;20.672;2023-08-17T19:39:34;101024.22;;;20.61;100.00
38253;BME280;24785;52.372;20.672;2023-08-17T19:49:35;101014.34;;;20.48;100.00
38253;BME280;24785;52.372;20.672;2023-08-17T19:59:36;101009.69;;;20.48;100.00
38253;BME280;24785;52.372;20.672;2023-08-17T20:09:36;101013.69;;;20.33;100.00
38253;BME280;24785;52.372;20.672;2023-08-17T20:19:37;101033.72;;;20.46;100.00
38253;BME280;24785;52.372;20.672;2023-08-17T20:29:40;101041.13;;;20.75;100.00
38253;BME280;24785;52.372;20.672;2023-08-17T20:39:40;101063.38;;;21.15;100.00
38253;BME280;24785;52.372;20.672;2023-08-17T20:49:41;101068.09;;;21.06;100.00
38253;BME280;24785;52.372;20.672;2023-08-17T20:59:43;101066.13;;;21.15;100.00
38253;BME280;24785;52.372;20.672;2023-08-17T21:09:44;101076.31;;;20.97;100.00
38253;BME280;24785;52.372;20.672;2023-08-17T21:19:44;101064.09;;;21.03;99.41
38253;BME280;24785;52.372;20.672;2023-08-17T21:29:45;101067.69;;;21.25;96.08
38253;BME280;24785;52.372;20.672;2023-08-17T21:39:46;101062.72;;;21.18;96.56
38253;BME280;24785;52.372;20.672;2023-08-17T21:49:47;101055.88;;;21.12;95.14
38253;BME280;24785;52.372;20.672;2023-08-17T21:59:48;101051.94;;;21.01;94.89
38253;BME280;24785;52.372;20.672;2023-08-17T22:09:48;101060.47;;;20.91;95.43
38253;BME280;24785;52.372;20.672;2023-08-17T22:19:49;101043.25;;;20.69;97.63
38253;BME280;24785;52.372;20.672;2023-08-17T22:29:50;101035.03;;;20.40;100.00
38253;BME280;24785;52.372;20.672;2023-08-17T22:39:51;101051.84;;;20.16;100.00
38253;BME280;24785;52.372;20.672;2023-08-17T22:49:52;101080.97;;;20.07;100.00
38253;BME280;24785;52.372;20.672;2023-08-17T22:59:54;101144.34;;;20.33;100.00
38253;BME280;24785;52.372;20.672;2023-08-17T23:09:55;101151.84;;;21.35;96.85
38253;BME280;24785;52.372;20.672;2023-08-17T23:19:56;101124.53;;;22.15;91.21
38253;BME280;24785;52.372;20.672;2023-08-17T23:29:57;101120.06;;;22.10;91.55
38253;BME280;24785;52.372;20.672;2023-08-17T23:39:58;101107.13;;;21.57;100.00
38253;BME280;24785;52.372;20.672;2023-08-17T23:49:58;101101.63;;;20.98;100.00
38253;BME280;24785;52.372;20.672;2023-08-17T23:59:59;101100.34;;;20.95;100.00
